Terminal Aerodrome Forecast
Issued by NWS

Home | Current Version | Previous Version | Text Only | Print | Product List | Glossary On
Versions: 1 2 3 4 5 6 7 8 9 10 11 12 13 14 15
000
FTUS42 TJSJ 301100
TAFISX
TAF
TISX 301139Z 3012/3112 VRB04KT P6SM VCSH SCT025
     FM301500 18010KT P6SM VCTS SCT025CB
     FM302300 VRB05KT P6SM FEW025=

USA.gov is the U.S. government's official web portal to all federal, state and local government web resources and services.